Time;durP1;ratioP1;P1;durP2;ratioP2;P2;SDS_P1;SDS_P2;PMS_P1;PMS_P2;Temp;Humidity;BMP_temperature;BMP_pressure;BME280_temperature;BME280_humidity;BME280_pressure;Samples;Min_cycle;Max_cycle;Signal;HPM_P1;HPM_P2
2022/06/11 00:01:26;;;;;;;9.57;2.42;;;;;;;19.18;66.01;100384.81;6237023;23;20004;-84
2022/06/11 00:03:54;;;;;;;3.60;2.22;;;;;;;19.13;66.16;100390.44;6237044;23;20023;-83
2022/06/11 00:06:20;;;;;;;8.90;2.40;;;;;;;19.10;66.38;100380.00;6236492;23;20233;-84
2022/06/11 00:08:46;;;;;;;7.65;2.53;;;;;;;19.16;66.27;100386.28;6236922;23;20016;-82
2022/06/11 00:11:11;;;;;;;9.48;3.17;;;;;;;19.16;66.59;100389.03;6236181;23;20004;-83
2022/06/11 00:13:38;;;;;;;4.70;2.58;;;;;;;19.21;65.96;100391.69;6236495;23;20335;-82
2022/06/11 00:16:04;;;;;;;9.40;2.95;;;;;;;19.30;66.01;100384.28;6235790;23;20266;-83
2022/06/11 00:18:30;;;;;;;4.65;2.60;;;;;;;19.31;65.85;100397.00;6209596;23;20015;-82
2022/06/11 00:20:55;;;;;;;8.25;2.22;;;;;;;19.27;65.72;100395.97;6237020;23;20322;-84
2022/06/11 00:23:20;;;;;;;5.28;2.45;;;;;;;19.28;65.73;100397.63;6236602;23;20066;-85
2022/06/11 00:25:46;;;;;;;6.13;2.97;;;;;;;19.16;65.93;100398.13;6235375;23;20012;-86
2022/06/11 00:28:11;;;;;;;6.65;2.83;;;;;;;19.17;66.08;100399.78;6236484;23;20015;-84
2022/06/11 00:30:37;;;;;;;10.77;3.58;;;;;;;19.23;66.17;100404.06;6236221;23;20011;-84
2022/06/11 00:33:06;;;;;;;11.90;2.72;;;;;;;19.17;66.10;100399.78;6236969;23;20322;-85
2022/06/11 00:35:33;;;;;;;4.32;2.22;;;;;;;19.17;66.19;100402.53;6235691;23;20369;-83
2022/06/11 00:37:58;;;;;;;8.38;3.00;;;;;;;19.18;66.01;100397.84;6236322;23;20079;-84
2022/06/11 00:40:32;;;;;;;7.38;2.63;;;;;;;19.12;66.13;100397.06;6235562;23;20043;-81
2022/06/11 00:42:57;;;;;;;6.85;2.97;;;;;;;19.16;66.25;100400.09;6236402;23;20438;-83
2022/06/11 00:45:32;;;;;;;7.70;2.08;;;;;;;19.11;66.28;100388.00;6235748;23;20004;-81
2022/06/11 00:48:05;;;;;;;5.60;2.50;;;;;;;19.11;66.51;100387.16;6236525;23;20312;-82
2022/06/11 00:50:45;;;;;;;6.03;2.30;;;;;;;19.09;66.64;100395.75;6236388;23;20074;-82
2022/06/11 00:53:14;;;;;;;9.88;2.80;;;;;;;19.08;66.97;100387.78;6236594;23;20012;-83
2022/06/11 00:55:42;;;;;;;4.95;2.67;;;;;;;19.07;67.13;100391.66;6235013;23;19997;-83
2022/06/11 00:58:33;;;;;;;5.43;2.85;;;;;;;19.12;67.11;100388.78;6236542;23;20042;-84
2022/06/11 01:00:59;;;;;;;8.75;2.72;;;;;;;19.17;66.50;100388.72;6236994;23;20049;-83
2022/06/11 01:03:35;;;;;;;9.52;3.10;;;;;;;19.13;67.12;100388.50;6235219;23;20066;-81
2022/06/11 01:06:26;;;;;;;9.80;2.95;;;;;;;19.18;66.88;100384.81;6208854;23;20083;-82
2022/06/11 01:09:10;;;;;;;6.75;2.45;;;;;;;19.13;67.06;100394.03;6235805;23;20015;-83
2022/06/11 01:11:35;;;;;;;;;;;;;;;19.01;67.33;100386.25;6236597;23;20461;-83
2022/06/11 01:14:07;;;;;;;10.32;3.22;;;;;;;19.11;67.79;100389.91;6236388;23;19904;-83
2022/06/11 01:16:41;;;;;;;6.05;2.35;;;;;;;19.08;67.57;100387.78;6235597;23;20008;-83
2022/06/11 01:19:31;;;;;;;11.95;2.60;;;;;;;18.99;67.78;100382.97;6236379;23;20012;-85
2022/06/11 01:22:09;;;;;;;6.63;2.75;;;;;;;18.99;67.84;100380.22;6235909;23;20448;-82
2022/06/11 01:24:55;;;;;;;8.93;2.88;;;;;;;19.13;67.90;100384.91;6235099;23;20016;-83
2022/06/11 01:27:48;;;;;;;6.45;3.75;;;;;;;19.16;68.52;100392.59;6235809;23;20003;-86
2022/06/11 01:30:24;;;;;;;5.15;2.70;;;;;;;19.18;67.82;100386.78;6236109;23;20008;-86
2022/06/11 01:33:03;;;;;;;7.32;2.78;;;;;;;19.20;67.71;100396.38;6209703;23;20223;-82
2022/06/11 01:35:41;;;;;;;6.72;3.55;;;;;;;19.11;68.14;100392.69;6235747;23;20083;-81
2022/06/11 01:38:22;;;;;;;11.27;3.28;;;;;;;19.13;67.95;100387.66;6236293;23;20091;-83
2022/06/11 01:40:59;;;;;;;5.53;2.50;;;;;;;19.05;68.15;100391.16;6236235;23;20079;-85
2022/06/11 01:43:33;;;;;;;7.22;3.10;;;;;;;19.09;68.22;100386.66;6236123;23;20000;-82
2022/06/11 01:46:02;;;;;;;12.75;5.22;;;;;;;19.05;68.21;100388.38;6235265;23;20085;-83
2022/06/11 01:48:29;;;;;;;12.95;3.92;;;;;;;19.01;68.47;100388.19;6236255;23;20004;-85
2022/06/11 01:51:12;;;;;;;15.07;2.85;;;;;;;19.06;68.37;100387.28;6235780;23;20035;-84
2022/06/11 01:53:49;;;;;;;8.93;3.63;;;;;;;19.04;68.71;100395.06;6236356;23;20426;-83
2022/06/11 01:56:24;;;;;;;9.07;2.47;;;;;;;19.04;68.36;100392.28;6234862;23;20008;-83
2022/06/11 01:58:55;;;;;;;5.28;2.92;;;;;;;19.09;68.86;100394.94;6236985;23;20012;-83
2022/06/11 02:01:26;;;;;;;4.38;2.30;;;;;;;19.11;68.78;100392.69;6235980;23;20016;-84
2022/06/11 02:03:58;;;;;;;8.60;3.58;;;;;;;19.01;68.82;100400.06;6235713;23;20024;-86
2022/06/11 02:06:33;;;;;;;8.10;3.08;;;;;;;18.96;69.04;100391.88;6235219;23;19996;-83
2022/06/11 02:09:06;;;;;;;8.65;3.03;;;;;;;18.97;69.25;100399.03;6236254;23;20446;-83
2022/06/11 02:11:45;;;;;;;4.50;2.50;;;;;;;18.98;69.58;100397.91;6235157;23;20000;-82
2022/06/11 02:14:25;;;;;;;9.35;3.22;;;;;;;19.03;69.67;100399.75;6236173;23;20000;-82
2022/06/11 02:17:02;;;;;;;7.82;3.00;;;;;;;19.02;69.53;100404.44;6235148;23;20320;-83
2022/06/11 02:19:33;;;;;;;7.55;3.67;;;;;;;18.98;69.96;100394.31;6236089;23;20008;-86
2022/06/11 02:22:10;;;;;;;7.10;3.25;;;;;;;18.88;69.95;100395.34;6236601;23;20008;-84
2022/06/11 02:24:41;;;;;;;6.10;3.38;;;;;;;18.83;70.17;100400.97;6235755;23;20008;-86
2022/06/11 02:27:13;;;;;;;7.00;3.40;;;;;;;18.82;70.05;100407.59;6234844;23;20012;-82
2022/06/11 02:29:39;;;;;;;7.53;2.47;;;;;;;18.86;70.34;100400.34;6235760;23;20434;-81
2022/06/11 02:32:14;;;;;;;8.38;2.95;;;;;;;18.84;70.22;100406.19;6235892;23;20085;-85
2022/06/11 02:34:45;;;;;;;5.65;3.08;;;;;;;18.85;70.46;100402.31;6235960;23;20105;-83
2022/06/11 02:37:37;;;;;;;6.40;2.67;;;;;;;18.86;70.53;100403.09;6236830;23;20089;-84
2022/06/11 02:40:34;;;;;;;7.95;2.92;;;;;;;18.89;71.13;100414.38;6238106;23;20143;-83
2022/06/11 02:42:59;;;;;;;7.63;2.92;;;;;;;18.84;70.40;100410.88;6219016;23;20027;-82
2022/06/11 02:45:25;;;;;;;5.60;2.50;;;;;;;18.76;70.72;100409.66;6237024;23;20016;-84
2022/06/11 02:47:52;;;;;;;6.85;3.00;;;;;;;18.76;70.88;100420.69;6237856;23;20004;-84
2022/06/11 02:50:24;;;;;;;11.27;2.70;;;;;;;18.62;71.25;100415.16;6236902;23;20039;-84
2022/06/11 02:52:50;;;;;;;9.95;3.00;;;;;;;18.63;70.94;100414.84;6237584;23;20099;-83
2022/06/11 02:55:16;;;;;;;7.88;2.80;;;;;;;18.60;71.50;100412.69;6237340;23;20835;-85
2022/06/11 02:57:41;;;;;;;8.35;4.22;;;;;;;18.53;71.51;100421.38;6237478;23;20069;-82
2022/06/11 03:00:09;;;;;;;7.30;2.65;;;;;;;18.62;71.31;100423.44;6237249;23;20044;-84
2022/06/11 03:02:35;;;;;;;8.85;3.67;;;;;;;18.59;71.64;100432.34;6237611;23;20023;-84
2022/06/11 03:05:01;;;;;;;5.60;2.45;;;;;;;18.54;71.48;100423.03;6236782;23;20024;-83
2022/06/11 03:07:26;;;;;;;8.87;2.67;;;;;;;18.51;72.28;100426.38;6237409;23;20011;-85
2022/06/11 03:09:51;;;;;;;6.05;2.25;;;;;;;18.55;71.79;100427.41;6237196;23;20241;-82
2022/06/11 03:12:17;;;;;;;9.55;3.28;;;;;;;18.47;71.99;100424.53;6236915;23;20615;-83
2022/06/11 03:14:43;;;;;;;12.07;2.88;;;;;;;18.41;71.74;100434.81;6236902;23;20012;-86
2022/06/11 03:17:11;;;;;;;5.80;2.25;;;;;;;18.44;72.08;100437.00;6237041;23;20445;-82
2022/06/11 03:19:36;;;;;;;8.52;2.97;;;;;;;18.47;71.67;100432.81;6237321;23;20342;-85
2022/06/11 03:22:02;;;;;;;6.93;2.42;;;;;;;18.41;71.77;100434.81;6210210;23;20011;-81
2022/06/11 03:24:28;;;;;;;5.50;2.60;;;;;;;18.34;72.29;100424.19;6237666;23;20412;-82
2022/06/11 03:26:54;;;;;;;6.75;3.13;;;;;;;18.36;72.32;100437.69;6236078;23;20083;-85
2022/06/11 03:29:21;;;;;;;10.35;3.00;;;;;;;18.36;72.15;100429.41;6236563;23;20008;-82
2022/06/11 03:31:47;;;;;;;9.63;2.58;;;;;;;18.29;72.27;100430.59;6237059;23;20194;-83
2022/06/11 03:34:13;;;;;;;4.10;1.95;;;;;;;18.20;72.64;100438.72;6236742;23;20016;-87
2022/06/11 03:36:40;;;;;;;5.13;2.67;;;;;;;18.11;73.17;100445.19;6236421;23;20001;-82
2022/06/11 03:39:06;;;;;;;7.70;2.58;;;;;;;18.07;73.27;100445.00;6237066;23;20008;-85
2022/06/11 03:41:31;;;;;;;5.45;2.30;;;;;;;18.11;73.22;100450.72;6236372;23;20007;-83
2022/06/11 03:43:57;;;;;;;6.93;2.58;;;;;;;18.19;73.34;100448.16;6237193;23;20020;-83
2022/06/11 03:46:22;;;;;;;5.85;2.97;;;;;;;18.19;73.13;100452.84;6235198;23;20008;-86
2022/06/11 03:48:48;;;;;;;7.65;2.08;;;;;;;18.12;73.13;100446.84;6237031;23;20058;-84
2022/06/11 03:51:14;;;;;;;5.53;2.70;;;;;;;18.11;73.67;100459.00;6236733;23;20010;-86
2022/06/11 03:53:41;;;;;;;7.85;3.88;;;;;;;18.05;73.49;100453.56;6237096;23;20007;-85
2022/06/11 03:56:08;;;;;;;7.38;2.90;;;;;;;18.11;73.63;100456.25;6235849;23;20337;-83
2022/06/11 03:58:34;;;;;;;7.43;2.58;;;;;;;18.09;74.07;100464.81;6237299;23;20085;-83
2022/06/11 04:01:15;;;;;;;5.43;2.75;;;;;;;18.11;73.87;100459.00;6237299;23;20079;-81
2022/06/11 04:03:50;;;;;;;5.40;2.53;;;;;;;18.12;73.60;100458.72;6236579;23;20016;-82
2022/06/11 04:06:18;;;;;;;8.57;2.95;;;;;;;18.08;73.76;100460.44;6235527;23;20012;-83
2022/06/11 04:08:44;;;;;;;8.60;2.47;;;;;;;18.05;73.78;100463.78;6236797;23;20028;-85
2022/06/11 04:11:10;;;;;;;4.53;2.78;;;;;;;18.14;74.31;100466.69;6236499;23;20011;-81
2022/06/11 04:13:37;;;;;;;6.63;2.70;;;;;;;18.09;74.29;100464.81;6236846;23;20019;-82
2022/06/11 04:16:04;;;;;;;7.65;3.45;;;;;;;18.11;73.94;100470.88;6235636;23;20012;-84
2022/06/11 04:18:40;;;;;;;4.65;2.35;;;;;;;18.19;73.92;100469.38;6236872;23;20030;-81
2022/06/11 04:21:09;;;;;;;4.22;2.17;;;;;;;18.22;73.56;100466.06;6236134;23;20171;-82
2022/06/11 04:23:36;;;;;;;9.23;2.55;;;;;;;18.15;74.24;100468.31;6236621;23;20437;-83
2022/06/11 04:26:09;;;;;;;8.25;2.70;;;;;;;18.11;74.03;100467.28;6235128;23;20035;-84
2022/06/11 04:28:35;;;;;;;;;;;;;;;18.18;74.15;100462.25;6236936;23;20094;-83
2022/06/11 04:31:03;;;;;;;7.53;2.83;;;;;;;18.15;74.01;100468.31;6236241;23;20007;-83
2022/06/11 04:33:29;;;;;;;16.02;3.08;;;;;;;18.19;73.99;100467.47;6236646;23;20004;-82
2022/06/11 04:35:54;;;;;;;9.15;3.10;;;;;;;18.16;73.92;100467.22;6235739;23;20004;-83
2022/06/11 04:38:23;;;;;;;4.32;2.40;;;;;;;18.15;74.26;100473.84;6236062;23;20591;-82
2022/06/11 04:40:49;;;;;;;8.77;2.55;;;;;;;18.09;74.14;100467.59;6236114;23;20004;-83
2022/06/11 04:43:15;;;;;;;6.25;2.55;;;;;;;18.06;74.26;100465.44;6209145;23;20058;-84
2022/06/11 04:45:41;;;;;;;6.35;2.08;;;;;;;18.08;74.42;100474.22;6235649;23;20303;-82
2022/06/11 04:48:07;;;;;;;6.25;2.50;;;;;;;18.18;74.39;100471.31;6236298;23;20007;-83
2022/06/11 04:50:33;;;;;;;9.15;2.58;;;;;;;18.15;74.08;100462.81;6236901;23;20439;-85
2022/06/11 04:52:59;;;;;;;9.05;2.33;;;;;;;18.12;73.88;100474.44;6236477;23;20043;-84
2022/06/11 04:55:25;;;;;;;6.03;1.90;;;;;;;18.08;73.96;100469.50;6235374;23;20362;-82
2022/06/11 04:57:50;;;;;;;21.70;3.35;;;;;;;18.03;74.34;100477.88;6236699;23;20000;-81
2022/06/11 05:00:18;;;;;;;10.30;3.88;;;;;;;18.04;74.50;100471.22;6236245;23;20008;-82
2022/06/11 05:02:44;;;;;;;5.68;2.50;;;;;;;18.08;74.40;100464.00;6236130;23;20004;-86
2022/06/11 05:05:11;;;;;;;8.10;2.42;;;;;;;18.19;73.98;100474.91;6235632;23;20301;-81
2022/06/11 05:07:36;;;;;;;4.82;2.47;;;;;;;18.23;73.95;100475.97;6236644;23;20020;-83
2022/06/11 05:10:03;;;;;;;7.55;2.35;;;;;;;18.31;73.76;100469.75;6235872;23;20671;-83
2022/06/11 05:12:29;;;;;;;4.47;2.35;;;;;;;18.36;73.75;100474.38;6235773;23;20520;-82
2022/06/11 05:14:54;;;;;;;6.38;2.50;;;;;;;18.29;73.68;100480.28;6234902;23;20000;-89
2022/06/11 05:17:19;;;;;;;11.10;2.40;;;;;;;18.33;73.45;100483.25;6235821;23;20422;-82
2022/06/11 05:19:44;;;;;;;7.80;2.43;;;;;;;18.27;73.42;100481.69;6235837;23;20275;-82
2022/06/11 05:22:10;;;;;;;4.65;2.20;;;;;;;18.28;74.00;100481.41;6236274;23;20280;-84
2022/06/11 05:24:35;;;;;;;4.60;1.97;;;;;;;18.36;73.44;100476.31;6235908;23;20457;-84
2022/06/11 05:27:06;;;;;;;7.38;2.05;;;;;;;18.52;73.46;100480.47;6208211;23;20229;-84
2022/06/11 05:29:44;;;;;;;6.15;2.20;;;;;;;18.53;73.75;100484.88;6235742;23;19999;-83
2022/06/11 05:32:10;;;;;;;5.13;2.33;;;;;;;18.66;73.32;100479.69;6235633;23;20003;-82
2022/06/11 05:34:36;;;;;;;4.38;2.25;;;;;;;18.76;72.75;100481.44;6235378;23;20012;-85
2022/06/11 05:37:01;;;;;;;16.65;3.00;;;;;;;18.74;72.75;100481.75;6208345;23;20039;-83
2022/06/11 05:39:28;;;;;;;3.58;1.85;;;;;;;18.93;72.40;100485.59;6235282;23;20122;-85
2022/06/11 05:41:54;;;;;;;5.05;1.70;;;;;;;18.96;72.23;100487.72;6235330;23;20406;-83
2022/06/11 05:44:19;;;;;;;6.80;2.25;;;;;;;19.11;71.82;100481.09;6235883;23;20030;-82
2022/06/11 05:46:45;;;;;;;3.65;2.13;;;;;;;19.18;71.53;100486.28;6235331;23;20047;-86
2022/06/11 05:49:16;;;;;;;3.35;1.83;;;;;;;19.13;71.35;100479.69;6235560;23;20446;-84
2022/06/11 05:51:45;;;;;;;6.05;2.28;;;;;;;19.25;70.96;100481.16;6235859;23;20074;-84
2022/06/11 05:54:16;;;;;;;4.15;1.88;;;;;;;19.22;70.20;100481.78;6235528;23;20087;-83
2022/06/11 05:56:42;;;;;;;7.03;2.58;;;;;;;19.28;70.30;100488.00;6234960;23;20054;-82
2022/06/11 05:59:13;;;;;;;4.20;2.10;;;;;;;19.23;70.86;100484.22;6208591;23;20014;-83
2022/06/11 06:01:41;;;;;;;6.88;2.92;;;;;;;19.21;71.00;100492.00;6235680;23;20303;-82
2022/06/11 06:04:07;;;;;;;4.97;2.13;;;;;;;19.16;71.09;100489.31;6235431;23;20334;-84
2022/06/11 06:06:33;;;;;;;8.60;2.40;;;;;;;19.18;70.79;100495.34;6234984;23;20012;-83
2022/06/11 06:08:58;;;;;;;5.80;1.60;;;;;;;19.20;70.71;100495.06;6208932;23;20599;-83
2022/06/11 06:11:25;;;;;;;6.80;1.98;;;;;;;19.32;70.36;100486.28;6237254;23;20018;-83
2022/06/11 06:13:51;;;;;;;10.88;2.60;;;;;;;19.30;70.48;100494.06;6237723;23;20400;-82
2022/06/11 06:16:20;;;;;;;4.03;2.00;;;;;;;19.36;70.49;100492.84;6236817;23;20034;-85
2022/06/11 06:18:47;;;;;;;6.75;2.55;;;;;;;19.29;70.94;100498.75;6237967;23;20012;-84
2022/06/11 06:21:14;;;;;;;6.55;3.15;;;;;;;19.13;71.30;100495.44;6237291;23;20119;-81
2022/06/11 06:23:39;;;;;;;9.10;2.97;;;;;;;19.22;71.59;100504.69;6237872;23;20014;-82
2022/06/11 06:26:04;;;;;;;5.57;3.03;;;;;;;19.36;71.71;100509.41;6236104;23;20012;-84
2022/06/11 06:28:31;;;;;;;8.63;3.13;;;;;;;19.31;71.73;100506.75;6237181;23;20004;-83
2022/06/11 06:30:58;;;;;;;9.07;3.28;;;;;;;19.53;71.25;100502.44;6237951;23;20038;-83
2022/06/11 06:33:24;;;;;;;7.82;3.35;;;;;;;19.53;70.79;100505.19;6237730;23;20465;-83
2022/06/11 06:35:50;;;;;;;12.25;3.72;;;;;;;19.36;71.68;100509.41;6236688;23;20087;-85
2022/06/11 06:38:16;;;;;;;8.27;3.65;;;;;;;19.42;71.30;100513.72;6237509;23;20019;-84
2022/06/11 06:40:42;;;;;;;15.00;3.38;;;;;;;19.39;71.71;100508.78;6237156;23;20031;-85
2022/06/11 06:43:08;;;;;;;7.40;2.80;;;;;;;19.51;71.45;100512.97;6237107;23;20008;-82
2022/06/11 06:45:33;;;;;;;14.13;4.15;;;;;;;19.34;72.03;100517.19;6236528;23;20015;-85
2022/06/11 06:47:58;;;;;;;12.98;4.88;;;;;;;19.48;71.96;100523.56;6237293;23;20322;-84
2022/06/11 06:50:24;;;;;;;8.15;3.90;;;;;;;19.57;71.77;100520.88;6237623;23;20083;-82
2022/06/11 06:52:49;;;;;;;6.32;3.42;;;;;;;19.60;71.96;100524.97;6237462;23;20318;-82
2022/06/11 06:55:14;;;;;;;7.43;3.17;;;;;;;19.73;71.44;100519.75;6236479;23;20038;-85
2022/06/11 06:57:41;;;;;;;6.93;3.25;;;;;;;19.66;71.38;100518.22;6237195;23;20083;-82
2022/06/11 07:00:08;;;;;;;10.48;4.28;;;;;;;19.62;72.20;100517.19;6237378;23;20008;-84
2022/06/11 07:02:33;;;;;;;7.07;3.97;;;;;;;19.76;71.41;100516.34;6236854;23;20390;-84
2022/06/11 07:04:59;;;;;;;7.80;3.60;;;;;;;19.71;71.41;100518.09;6235928;23;20039;-84
2022/06/11 07:07:25;;;;;;;11.75;3.83;;;;;;;19.75;72.04;100509.19;6236837;23;20526;-84
2022/06/11 07:09:53;;;;;;;6.72;3.67;;;;;;;19.81;71.37;100521.78;6237442;23;20209;-82
2022/06/11 07:12:18;;;;;;;10.27;4.20;;;;;;;19.88;71.68;100524.94;6236729;23;20560;-81
2022/06/11 07:14:43;;;;;;;15.48;5.18;;;;;;;19.80;71.12;100528.44;6237064;23;20301;-83
2022/06/11 07:17:10;;;;;;;9.23;3.43;;;;;;;19.54;71.83;100520.69;6236077;23;20008;-81
2022/06/11 07:19:42;;;;;;;9.55;4.32;;;;;;;19.60;71.98;100519.44;6237041;23;20068;-82
2022/06/11 07:22:18;;;;;;;7.65;3.25;;;;;;;19.71;71.63;100520.88;6236662;23;20011;-82
2022/06/11 07:24:43;;;;;;;9.82;3.95;;;;;;;19.83;71.42;100517.56;6237000;23;20031;-83
2022/06/11 07:27:13;;;;;;;9.57;4.28;;;;;;;19.89;71.15;100521.03;6235642;23;20054;-84
2022/06/11 07:29:48;;;;;;;11.70;5.25;;;;;;;20.09;70.70;100524.53;6236130;23;20012;-84
2022/06/11 07:32:16;;;;;;;7.55;3.72;;;;;;;20.05;70.23;100526.25;6237126;23;20011;-84
2022/06/11 07:34:42;;;;;;;9.68;3.83;;;;;;;20.26;70.00;100526.63;6236866;23;20123;-82
2022/06/11 07:37:09;;;;;;;14.18;4.38;;;;;;;20.21;69.97;100524.00;6236344;23;20430;-86
2022/06/11 07:39:35;;;;;;;10.60;4.22;;;;;;;20.24;69.99;100522.56;6236393;23;20558;-81
2022/06/11 07:42:00;;;;;;;12.75;4.78;;;;;;;20.27;69.92;100524.69;6236383;23;20018;-84
2022/06/11 07:44:26;;;;;;;11.80;4.78;;;;;;;20.29;70.06;100523.25;6236619;23;20007;-82
2022/06/11 07:46:51;;;;;;;10.93;4.60;;;;;;;20.29;69.67;100527.97;6236067;23;20322;-83
2022/06/11 07:49:17;;;;;;;9.10;3.95;;;;;;;20.40;69.33;100514.72;6236461;23;20035;-83
2022/06/11 07:51:43;;;;;;;12.88;5.00;;;;;;;20.39;69.69;100526.91;6236477;23;20031;-84
2022/06/11 07:54:09;;;;;;;11.52;5.03;;;;;;;20.04;70.40;100530.13;6236344;23;20470;-84
2022/06/11 07:56:37;;;;;;;8.00;4.00;;;;;;;20.01;70.44;100531.59;6235497;23;20026;-84
2022/06/11 07:59:03;;;;;;;8.23;4.25;;;;;;;20.10;70.32;100531.69;6237006;23;20004;-83
2022/06/11 08:01:28;;;;;;;10.65;4.40;;;;;;;20.00;70.23;100532.72;6236927;23;20038;-81
2022/06/11 08:03:54;;;;;;;9.32;4.50;;;;;;;20.26;69.93;100534.09;6237010;23;20351;-86
2022/06/11 08:06:19;;;;;;;8.73;4.85;;;;;;;20.21;69.84;100540.59;6236015;23;19996;-84
2022/06/11 08:08:45;;;;;;;10.07;5.97;;;;;;;20.11;69.41;100543.59;6236988;23;20015;-83
2022/06/11 08:11:11;;;;;;;10.23;5.30;;;;;;;19.98;69.67;100534.97;6236726;23;20008;-82
2022/06/11 08:13:36;;;;;;;9.40;4.63;;;;;;;20.03;69.64;100537.63;6236646;23;20116;-83
2022/06/11 08:16:04;;;;;;;17.13;6.67;;;;;;;20.35;68.84;100536.97;6208566;23;20016;-82
2022/06/11 08:18:32;;;;;;;11.00;6.13;;;;;;;20.34;68.77;100533.38;6237458;23;20599;-82
2022/06/11 08:20:57;;;;;;;15.68;5.60;;;;;;;20.30;68.83;100541.47;6209173;23;20008;-83
2022/06/11 08:23:23;;;;;;;11.60;5.32;;;;;;;20.44;68.77;100539.81;6236449;23;20014;-84
2022/06/11 08:25:50;;;;;;;13.07;5.70;;;;;;;20.46;68.69;100532.00;6235479;23;20004;-84
2022/06/11 08:28:16;;;;;;;11.18;5.82;;;;;;;20.38;68.36;100537.16;6236383;23;20074;-85
2022/06/11 08:30:44;;;;;;;10.48;5.50;;;;;;;20.43;68.29;100541.75;6237168;23;20449;-83
2022/06/11 08:33:09;;;;;;;12.98;6.63;;;;;;;20.37;68.66;100538.28;6237470;23;20004;-83
2022/06/11 08:35:35;;;;;;;9.45;5.60;;;;;;;20.32;68.67;100543.94;6235649;23;20008;-83
2022/06/11 08:38:02;;;;;;;10.38;6.18;;;;;;;20.57;67.87;100546.41;6236177;23;20350;-84
2022/06/11 08:40:37;;;;;;;7.65;4.82;;;;;;;20.67;67.69;100542.56;6236642;23;20264;-83
2022/06/11 08:43:34;;;;;;;14.02;6.78;;;;;;;20.63;68.42;100537.69;6236479;23;20485;-86
2022/06/11 08:46:23;;;;;;;7.70;5.88;;;;;;;20.76;66.59;100547.06;6235377;23;20008;-84
2022/06/11 08:49:03;;;;;;;12.57;5.80;;;;;;;20.75;66.69;100550.13;6235385;23;20034;-82
2022/06/11 08:51:37;;;;;;;12.20;5.13;;;;;;;20.70;66.63;100547.50;6209155;23;20491;-82
2022/06/11 08:54:07;;;;;;;13.40;5.72;;;;;;;20.85;66.35;100549.88;6236590;23;20095;-81
2022/06/11 08:57:06;;;;;;;10.57;4.78;;;;;;;20.97;66.08;100545.75;6235695;23;20008;-85
2022/06/11 08:59:40;;;;;;;9.15;4.75;;;;;;;20.83;66.32;100557.69;6236036;23;20004;-82
2022/06/11 09:02:17;;;;;;;8.65;4.78;;;;;;;20.57;66.54;100549.19;6236444;23;20077;-82
2022/06/11 09:04:50;;;;;;;7.32;4.75;;;;;;;20.53;66.16;100549.00;6208662;23;20087;-82
2022/06/11 09:07:33;;;;;;;10.75;4.50;;;;;;;20.80;65.73;100543.66;6235947;23;20012;-83
2022/06/11 09:10:53;;;;;;;5.75;3.13;;;;;;;20.85;65.17;100544.34;6235933;23;20004;-87
2022/06/11 09:13:29;;;;;;;10.65;4.25;;;;;;;21.02;64.73;100544.78;6142621;23;20030;-86
2022/06/11 09:16:10;;;;;;;5.10;2.88;;;;;;;21.32;64.20;100537.59;6222398;23;20523;-82
2022/06/11 09:18:43;;;;;;;6.05;3.25;;;;;;;21.69;63.27;100536.59;6236163;23;20065;-84
2022/06/11 09:21:28;;;;;;;7.78;3.47;;;;;;;21.59;62.87;100532.16;6208960;23;20043;-82
2022/06/11 09:24:18;;;;;;;8.02;3.67;;;;;;;21.33;62.71;100530.94;6235424;23;20454;-84
2022/06/11 09:27:05;;;;;;;7.95;2.90;;;;;;;21.36;63.34;100536.97;6234734;23;20000;-85
2022/06/11 09:30:01;;;;;;;5.20;3.85;;;;;;;21.26;63.33;100536.09;6235939;23;20314;-82
2022/06/11 09:32:31;;;;;;;4.63;3.17;;;;;;;21.55;63.29;100536.72;6236024;23;20015;-83
2022/06/11 09:34:59;;;;;;;6.10;3.38;;;;;;;21.81;62.48;100538.75;6235665;23;20132;-86
2022/06/11 09:37:55;;;;;;;9.43;4.07;;;;;;;21.91;62.53;100532.91;6235631;23;20008;-82
2022/06/11 09:40:33;;;;;;;7.60;3.42;;;;;;;21.97;61.92;100539.13;6235982;23;20355;-83
2022/06/11 09:43:08;;;;;;;3.47;2.20;;;;;;;22.08;61.25;100541.59;6208939;23;20004;-83
2022/06/11 09:45:47;;;;;;;2.95;2.08;;;;;;;22.08;61.08;100541.59;6235349;23;20008;-85
2022/06/11 09:48:41;;;;;;;4.32;2.22;;;;;;;22.13;61.26;100545.03;6236024;23;20063;-82
2022/06/11 09:51:31;;;;;;;8.45;2.35;;;;;;;22.12;61.59;100548.13;6236252;23;20044;-82
2022/06/11 09:54:14;;;;;;;4.47;2.08;;;;;;;21.98;61.71;100540.78;6236571;23;20020;-83
2022/06/11 09:56:59;;;;;;;4.80;3.15;;;;;;;22.07;61.63;100551.88;6235081;23;20020;-82
2022/06/11 09:59:44;;;;;;;4.25;2.30;;;;;;;22.26;61.88;100542.44;6235700;23;20000;-82
2022/06/11 10:02:29;;;;;;;4.68;1.80;;;;;;;22.39;61.38;100541.44;6235898;23;20008;-81
2022/06/11 10:04:58;;;;;;;6.00;2.10;;;;;;;22.63;60.80;100547.66;6234810;23;20024;-86
2022/06/11 10:07:32;;;;;;;6.35;2.20;;;;;;;22.60;60.36;100539.97;6236160;23;20016;-83
2022/06/11 10:10:25;;;;;;;4.00;1.90;;;;;;;22.51;60.44;100546.38;6236151;23;20004;-86
2022/06/11 10:13:06;;;;;;;5.55;2.03;;;;;;;22.47;60.56;100539.00;6225881;23;20008;-81
2022/06/11 10:15:34;;;;;;;4.40;1.85;;;;;;;22.61;59.94;100547.16;6235777;23;20012;-83
2022/06/11 10:18:14;;;;;;;6.25;1.95;;;;;;;22.36;60.58;100546.84;6236367;23;20016;-82
2022/06/11 10:20:50;;;;;;;2.75;1.70;;;;;;;22.65;59.99;100553.72;6236240;23;20004;-82
2022/06/11 10:23:22;;;;;;;2.50;1.60;;;;;;;22.99;59.39;100551.22;6235406;23;20012;-83
2022/06/11 10:25:50;;;;;;;4.10;2.05;;;;;;;23.10;59.13;100540.56;6234845;23;19996;-84
2022/06/11 10:28:22;;;;;;;6.70;2.03;;;;;;;22.76;59.73;100551.41;6235517;23;20012;-83
2022/06/11 10:31:04;;;;;;;5.45;2.28;;;;;;;22.43;59.56;100549.97;6235717;23;20773;-82
2022/06/11 10:33:38;;;;;;;6.57;2.55;;;;;;;22.33;60.32;100553.06;6235994;23;20139;-82
2022/06/11 10:36:15;;;;;;;7.18;2.60;;;;;;;22.17;61.00;100550.75;6235156;23;20011;-83
2022/06/11 10:38:51;;;;;;;8.07;2.60;;;;;;;22.08;61.00;100550.75;6236819;23;20236;-83
2022/06/11 10:41:24;;;;;;;4.28;2.47;;;;;;;22.16;61.21;100554.69;6235033;23;20015;-81
2022/06/11 10:44:17;;;;;;;4.97;1.85;;;;;;;22.53;60.24;100548.00;6235934;23;20062;-82
2022/06/11 10:46:42;;;;;;;5.35;2.88;;;;;;;22.54;59.91;100552.41;6234692;23;20000;-82
2022/06/11 10:49:14;;;;;;;8.68;2.80;;;;;;;22.54;59.51;100546.84;6235834;23;20008;-85
2022/06/11 10:51:44;;;;;;;11.50;3.10;;;;;;;23.01;59.22;100548.09;6235545;23;20004;-82
2022/06/11 10:54:12;;;;;;;5.25;2.55;;;;;;;23.47;57.29;100544.88;6235600;23;20012;-84
2022/06/11 10:56:48;;;;;;;6.15;2.75;;;;;;;23.37;57.02;100555.19;6235548;23;20062;-85
2022/06/11 10:59:19;;;;;;;4.63;2.80;;;;;;;23.04;57.33;100547.44;6237195;23;20031;-84
2022/06/11 11:01:49;;;;;;;6.60;3.35;;;;;;;22.86;57.69;100533.59;6237631;23;20101;-82
2022/06/11 11:04:14;;;;;;;5.15;2.58;;;;;;;23.16;57.20;100544.81;6236803;23;20651;-82
2022/06/11 11:06:42;;;;;;;5.73;3.07;;;;;;;23.33;55.92;100535.56;6236554;23;20263;-84
2022/06/11 11:09:24;;;;;;;4.18;2.60;;;;;;;23.22;56.62;100537.09;6237376;23;20258;-84
2022/06/11 11:11:55;;;;;;;3.92;2.55;;;;;;;23.09;57.18;100533.34;6236961;23;20012;-81
2022/06/11 11:14:42;;;;;;;6.55;2.83;;;;;;;22.79;57.62;100530.50;6210051;23;20008;-82
2022/06/11 11:17:22;;;;;;;6.25;3.10;;;;;;;22.57;58.12;100533.13;6236579;23;20008;-84
2022/06/11 11:22:41;;;;;;;5.43;3.03;;;;;;;22.52;57.82;100533.28;6237341;23;20334;-83
2022/06/11 11:25:15;;;;;;;11.52;3.30;;;;;;;22.49;58.74;100528.38;6236324;23;20082;-87
2022/06/11 11:27:46;;;;;;;7.55;3.03;;;;;;;22.80;57.91;100523.81;6237025;23;20011;-83
2022/06/11 11:30:14;;;;;;;5.43;3.22;;;;;;;23.08;57.45;100529.78;6236746;23;20001;-81
2022/06/11 11:32:41;;;;;;;4.53;2.70;;;;;;;22.98;58.17;100525.38;6237001;23;20100;-83
2022/06/11 11:35:21;;;;;;;4.80;3.35;;;;;;;22.79;58.33;100520.19;6236068;23;20012;-84
2022/06/11 11:38:00;;;;;;;6.05;3.05;;;;;;;22.40;59.06;100525.59;6237100;23;20028;-83
2022/06/11 11:40:30;;;;;;;5.53;2.95;;;;;;;22.14;60.10;100527.25;6237464;23;20004;-84
2022/06/11 11:42:58;;;;;;;5.18;3.17;;;;;;;22.26;59.97;100526.59;6237673;23;20328;-83
2022/06/11 11:45:28;;;;;;;6.57;3.35;;;;;;;22.67;59.03;100534.78;6236709;23;20008;-84